createdAt,value
2019-02-14T00:01:47.401Z,103422.45
2019-02-14T00:04:16.807Z,103426.56
2019-02-14T00:06:46.197Z,103422.02
2019-02-14T00:09:15.501Z,103418.27
2019-02-14T00:11:44.897Z,103418.64
2019-02-14T00:14:14.311Z,103416.65
2019-02-14T00:16:43.729Z,103425.12
2019-02-14T00:19:13.067Z,103433.25
2019-02-14T00:21:42.378Z,103433.48
2019-02-14T00:24:11.660Z,103431.41
2019-02-14T00:26:40.942Z,103432.95
2019-02-14T00:29:10.260Z,103438.09
2019-02-14T00:31:39.648Z,103437.97
2019-02-14T00:34:09.846Z,103439.80
2019-02-14T00:36:39.125Z,103431.38
2019-02-14T00:39:10.574Z,103435.59
2019-02-14T00:41:39.855Z,103430.97
2019-02-14T00:44:09.144Z,103442.23
2019-02-14T00:46:38.422Z,103446.21
2019-02-14T00:49:07.756Z,103438.42
2019-02-14T00:51:37.042Z,103436.71
2019-02-14T00:54:06.365Z,103439.11
2019-02-14T00:56:35.710Z,103442.23
2019-02-14T00:59:05.039Z,103437.41
2019-02-14T01:01:34.358Z,103442.86
2019-02-14T01:04:03.633Z,103432.95
2019-02-14T01:06:32.924Z,103428.80
2019-02-14T01:09:02.289Z,103433.38
2019-02-14T01:11:31.565Z,103431.56
2019-02-14T01:14:00.881Z,103424.52
2019-02-14T01:16:30.653Z,103421.72
2019-02-14T01:18:59.945Z,103423.70
2019-02-14T01:21:29.344Z,103412.25
2019-02-14T01:23:58.733Z,103416.65
2019-02-14T01:26:28.032Z,103410.53
2019-02-14T01:28:57.425Z,103414.00
2019-02-14T01:31:26.699Z,103420.28
2019-02-14T01:33:55.993Z,103410.27
2019-02-14T01:36:25.295Z,103419.90
2019-02-14T01:38:54.625Z,103418.77
2019-02-14T01:41:23.879Z,103426.84
2019-02-14T01:43:53.157Z,103423.00
2019-02-14T01:46:22.457Z,103419.52
2019-02-14T01:48:51.718Z,103417.06
2019-02-14T01:51:21.015Z,103426.75
2019-02-14T01:53:50.287Z,103407.77
2019-02-14T01:56:19.571Z,103419.55
2019-02-14T01:58:48.852Z,103412.73
2019-02-14T02:01:18.153Z,103417.67
2019-02-14T02:03:47.463Z,103423.90
2019-02-14T02:06:16.767Z,103414.70
2019-02-14T02:08:46.028Z,103415.23
2019-02-14T02:11:15.358Z,103413.02
2019-02-14T02:13:44.643Z,103416.56
2019-02-14T02:16:13.982Z,103411.33
2019-02-14T02:18:43.332Z,103409.34
2019-02-14T02:21:12.614Z,103406.55
2019-02-14T02:23:41.984Z,103403.13
2019-02-14T02:26:11.281Z,103409.54
2019-02-14T02:28:40.567Z,103415.36
2019-02-14T02:31:09.882Z,103404.78
2019-02-14T02:33:39.187Z,103412.78
2019-02-14T02:36:08.451Z,103420.48
2019-02-14T02:38:37.752Z,103424.09
2019-02-14T02:41:06.996Z,103409.98
2019-02-14T02:43:36.295Z,103417.80
2019-02-14T02:46:05.563Z,103413.74
2019-02-14T02:48:34.858Z,103408.50
2019-02-14T02:51:04.239Z,103412.25
2019-02-14T02:53:33.520Z,103418.78
2019-02-14T02:56:02.781Z,103412.52
2019-02-14T02:58:32.073Z,103416.27
2019-02-14T03:01:01.454Z,103417.88
2019-02-14T03:03:30.735Z,103410.84
2019-02-14T03:06:00.019Z,103405.13
2019-02-14T03:08:29.368Z,103404.88
2019-02-14T03:10:58.699Z,103406.27
2019-02-14T03:13:28.021Z,103415.73
2019-02-14T03:15:57.295Z,103419.28
2019-02-14T03:18:26.641Z,103420.74
2019-02-14T03:20:55.895Z,103428.27
2019-02-14T03:23:25.174Z,103423.70
2019-02-14T03:25:54.467Z,103417.70
2019-02-14T03:28:23.786Z,103423.58
2019-02-14T03:30:53.049Z,103418.35
2019-02-14T03:33:22.384Z,103421.15
2019-02-14T03:35:51.658Z,103420.31
2019-02-14T03:38:20.991Z,103413.70
2019-02-14T03:40:50.280Z,103422.86
2019-02-14T03:43:19.545Z,103420.09
2019-02-14T03:45:48.896Z,103427.03
2019-02-14T03:48:18.171Z,103419.77
2019-02-14T03:50:47.477Z,103421.00
2019-02-14T03:53:16.756Z,103414.43
2019-02-14T03:55:46.161Z,103421.66
2019-02-14T03:58:15.470Z,103420.17
2019-02-14T04:00:44.755Z,103425.73
2019-02-14T04:03:14.070Z,103430.08
2019-02-14T04:05:43.434Z,103426.30
2019-02-14T04:08:12.701Z,103416.56
2019-02-14T04:14:35.208Z,103420.91
2019-02-14T04:17:04.552Z,103423.63
2019-02-14T04:19:33.879Z,103424.28
2019-02-14T04:22:33.470Z,103423.17
2019-02-14T04:25:02.820Z,103421.81
2019-02-14T04:27:32.139Z,103426.45
2019-02-14T04:30:01.434Z,103427.09
2019-02-14T04:32:30.748Z,103431.53
2019-02-14T04:35:00.362Z,103441.00
2019-02-14T04:37:29.758Z,103444.42
2019-02-14T04:39:59.114Z,103448.53
2019-02-14T04:42:28.454Z,103446.84
2019-02-14T04:44:57.767Z,103441.95
2019-02-14T04:47:27.085Z,103454.44
2019-02-14T04:49:56.382Z,103442.86
2019-02-14T04:52:25.715Z,103445.34
2019-02-14T04:54:55.110Z,103449.79
2019-02-14T04:57:24.544Z,103441.22
2019-02-14T04:59:53.885Z,103443.05
2019-02-14T05:02:23.191Z,103440.68
2019-02-14T05:04:52.476Z,103437.33
2019-02-14T05:07:21.805Z,103434.48
2019-02-14T05:09:51.104Z,103443.41
2019-02-14T05:12:20.356Z,103441.75
2019-02-14T05:14:49.646Z,103444.52
2019-02-14T05:17:18.905Z,103442.87
2019-02-14T05:19:48.172Z,103446.45
2019-02-14T05:22:17.436Z,103458.58
2019-02-14T05:24:46.770Z,103455.86
2019-02-14T05:27:16.071Z,103459.65
2019-02-14T05:29:45.357Z,103461.63
2019-02-14T05:32:14.626Z,103452.80
2019-02-14T05:34:43.947Z,103465.11
2019-02-14T05:37:13.212Z,103461.98
2019-02-14T05:39:42.504Z,103455.77
2019-02-14T05:42:11.796Z,103464.88
2019-02-14T05:44:41.098Z,103466.18
2019-02-14T05:47:10.389Z,103463.95
2019-02-14T05:49:39.698Z,103475.03
2019-02-14T05:52:08.951Z,103470.41
2019-02-14T05:54:38.231Z,103468.12
2019-02-14T05:57:07.508Z,103463.97
2019-02-14T05:59:41.366Z,103455.81
2019-02-14T06:02:10.668Z,103463.84
2019-02-14T06:04:39.950Z,103463.13
2019-02-14T06:07:09.209Z,103470.67
2019-02-14T06:09:38.560Z,103466.89
2019-02-14T06:12:07.815Z,103470.86
2019-02-14T06:14:37.081Z,103472.42
2019-02-14T06:17:06.357Z,103477.70
2019-02-14T06:19:35.615Z,103474.50
2019-02-14T06:22:04.946Z,103478.56
2019-02-14T06:24:34.227Z,103487.83
2019-02-14T06:27:03.512Z,103490.23
2019-02-14T06:29:32.801Z,103490.27
2019-02-14T06:32:02.136Z,103494.21
2019-02-14T06:34:31.428Z,103492.27
2019-02-14T06:37:08.038Z,103490.43
2019-02-14T06:39:31.824Z,103497.63
2019-02-14T06:42:01.114Z,103490.45
2019-02-14T06:44:30.368Z,103498.88
2019-02-14T06:46:59.698Z,103505.27
2019-02-14T06:49:29.013Z,103508.66
2019-02-14T06:51:58.309Z,103515.69
2019-02-14T06:54:27.589Z,103514.90
2019-02-14T06:56:57.010Z,103513.78
2019-02-14T06:59:26.291Z,103512.09
2019-02-14T07:01:55.589Z,103513.28
2019-02-14T07:04:24.868Z,103519.77
2019-02-14T07:06:54.260Z,103524.13
2019-02-14T07:09:25.656Z,103522.19
2019-02-14T07:11:54.980Z,103525.02
2019-02-14T07:14:24.249Z,103533.95
2019-02-14T07:16:53.602Z,103525.00
2019-02-14T07:19:22.911Z,103524.75
2019-02-14T07:21:52.216Z,103521.66
2019-02-14T07:24:21.476Z,103524.23
2019-02-14T07:26:50.766Z,103526.77
2019-02-14T07:29:20.099Z,103534.22
2019-02-14T07:31:49.404Z,103530.98
2019-02-14T07:34:18.676Z,103536.13
2019-02-14T07:36:47.954Z,103536.91
2019-02-14T07:39:17.279Z,103536.82
2019-02-14T07:41:46.566Z,103530.00
2019-02-14T07:44:15.875Z,103528.59
2019-02-14T07:46:45.241Z,103526.06
2019-02-14T07:49:14.525Z,103527.49
2019-02-14T07:51:43.821Z,103529.03
2019-02-14T07:54:13.183Z,103532.95
2019-02-14T07:56:42.439Z,103530.77
2019-02-14T07:59:11.778Z,103520.70
2019-02-14T08:01:41.028Z,103516.31
2019-02-14T08:04:10.329Z,103509.00
2019-02-14T08:06:39.613Z,103509.61
2019-02-14T08:09:08.975Z,103511.56
2019-02-14T08:11:38.226Z,103507.35
2019-02-14T08:14:07.518Z,103510.11
2019-02-14T08:16:36.794Z,103516.66
2019-02-14T08:19:06.091Z,103517.49
2019-02-14T08:21:35.392Z,103512.83
2019-02-14T08:24:04.668Z,103520.02
2019-02-14T08:26:33.988Z,103513.83
2019-02-14T08:29:33.387Z,103515.64
2019-02-14T08:32:32.678Z,103519.95
2019-02-14T08:35:32.160Z,103515.13
2019-02-14T08:38:31.652Z,103507.82
2019-02-14T08:41:31.087Z,103513.38
2019-02-14T08:44:00.351Z,103519.88
2019-02-14T08:46:32.399Z,103509.45
2019-02-14T08:49:01.651Z,103513.16
2019-02-14T08:51:33.794Z,103510.70
2019-02-14T09:00:31.246Z,103497.87
2019-02-14T09:05:47.789Z,103498.66
2019-02-14T09:08:32.403Z,103504.98
2019-02-14T09:11:01.661Z,103511.03
2019-02-14T09:13:34.002Z,103511.83
2019-02-14T09:16:30.475Z,103510.64
2019-02-14T09:19:32.932Z,103506.61
2019-02-14T09:22:32.367Z,103509.42
2019-02-14T09:27:48.692Z,103507.00
2019-02-14T09:30:30.106Z,103505.09
2019-02-14T09:32:59.428Z,103511.32
2019-02-14T09:35:28.703Z,103497.59
2019-02-14T09:38:03.267Z,103502.44
2019-02-14T09:40:29.025Z,103503.70
2019-02-14T09:42:58.326Z,103498.81
2019-02-14T09:45:27.635Z,103499.00
2019-02-14T09:47:56.940Z,103496.41
2019-02-14T09:50:26.258Z,103495.70
2019-02-14T09:52:55.528Z,103491.95
2019-02-14T09:55:24.816Z,103496.02
2019-02-14T09:57:54.139Z,103505.01
2019-02-14T10:00:23.420Z,103499.02
2019-02-14T10:02:52.724Z,103508.86
2019-02-14T10:05:22.045Z,103511.67
2019-02-14T10:07:51.309Z,103507.53
2019-02-14T10:10:20.664Z,103508.53
2019-02-14T10:12:50.043Z,103510.41
2019-02-14T10:15:19.383Z,103495.97
2019-02-14T10:17:48.700Z,103498.67
2019-02-14T10:20:17.980Z,103501.80
2019-02-14T10:22:47.315Z,103494.21
2019-02-14T10:25:16.618Z,103496.77
2019-02-14T10:27:45.930Z,103492.36
2019-02-14T10:30:18.815Z,103486.09
2019-02-14T10:32:47.091Z,103491.69
2019-02-14T10:35:16.374Z,103499.23
2019-02-14T10:37:45.761Z,103503.97
2019-02-14T10:40:15.619Z,103501.25
2019-02-14T10:42:44.973Z,103507.69
2019-02-14T10:45:16.413Z,103510.45
2019-02-14T10:47:45.740Z,103505.08
2019-02-14T10:50:15.030Z,103495.26
2019-02-14T10:52:44.346Z,103491.67
2019-02-14T10:55:13.730Z,103492.41
2019-02-14T10:57:43.021Z,103486.44
2019-02-14T11:00:19.152Z,103492.22
2019-02-14T11:02:49.487Z,103493.31
2019-02-14T11:05:19.011Z,103495.14
2019-02-14T11:07:48.317Z,103484.61
2019-02-14T11:10:17.663Z,103485.54
2019-02-14T11:12:46.952Z,103490.59
2019-02-14T11:15:17.636Z,103485.94
2019-02-14T11:17:48.942Z,103488.85
2019-02-14T11:20:18.292Z,103477.89
2019-02-14T11:22:48.966Z,103485.22
2019-02-14T11:25:24.578Z,103479.92
2019-02-14T11:27:53.843Z,103484.94
2019-02-14T11:30:23.162Z,103471.48
2019-02-14T11:32:52.455Z,103476.81
2019-02-14T11:35:21.750Z,103471.17
2019-02-14T11:37:51.104Z,103468.26
2019-02-14T11:40:48.390Z,103467.89
2019-02-14T11:43:17.750Z,103460.78
2019-02-14T11:45:47.170Z,103467.78
2019-02-14T11:48:16.506Z,103461.31
2019-02-14T11:50:56.396Z,103453.55
2019-02-14T11:53:25.742Z,103458.17
2019-02-14T11:55:55.047Z,103450.25
2019-02-14T11:58:24.460Z,103443.00
2019-02-14T12:00:53.766Z,103437.02
2019-02-14T12:03:23.072Z,103434.23
2019-02-14T12:05:52.397Z,103431.06
2019-02-14T12:08:21.776Z,103436.98
2019-02-14T12:10:51.153Z,103433.27
2019-02-14T12:13:20.447Z,103432.99
2019-02-14T12:15:49.831Z,103433.39
2019-02-14T12:18:19.119Z,103422.25
2019-02-14T12:20:48.493Z,103423.92
2019-02-14T12:23:17.813Z,103419.47
2019-02-14T12:25:47.115Z,103420.56
2019-02-14T12:28:16.411Z,103420.78
2019-02-14T12:30:45.713Z,103399.88
2019-02-14T12:33:15.010Z,103401.17
2019-02-14T12:35:44.339Z,103393.69
2019-02-14T12:38:13.653Z,103392.75
2019-02-14T12:40:42.937Z,103385.24
2019-02-14T12:43:12.308Z,103381.37
2019-02-14T12:45:41.603Z,103378.20
2019-02-14T12:48:11.019Z,103381.64
2019-02-14T12:50:40.315Z,103382.45
2019-02-14T12:53:09.616Z,103386.88
2019-02-14T12:55:38.893Z,103383.91
2019-02-14T12:58:08.176Z,103380.92
2019-02-14T13:00:37.468Z,103370.86
2019-02-14T13:03:06.764Z,103374.69
2019-02-14T13:05:36.041Z,103361.86
2019-02-14T13:08:05.427Z,103371.38
2019-02-14T13:10:34.754Z,103376.89
2019-02-14T13:13:04.112Z,103378.25
2019-02-14T13:15:33.410Z,103376.91
2019-02-14T13:18:02.744Z,103376.91
2019-02-14T13:20:32.036Z,103376.84
2019-02-14T13:23:01.343Z,103376.92
2019-02-14T13:25:30.596Z,103378.38
2019-02-14T13:27:59.921Z,103382.83
2019-02-14T13:30:29.261Z,103382.29
2019-02-14T13:32:58.582Z,103377.64
2019-02-14T13:35:27.947Z,103376.77
2019-02-14T13:37:57.301Z,103379.59
2019-02-14T13:40:26.583Z,103383.52
2019-02-14T13:42:56.659Z,103378.77
2019-02-14T13:45:25.920Z,103371.86
2019-02-14T13:47:55.272Z,103369.56
2019-02-14T13:50:24.549Z,103368.44
2019-02-14T13:52:53.826Z,103365.72
2019-02-14T13:55:23.162Z,103366.92
2019-02-14T13:57:52.509Z,103360.62
2019-02-14T14:00:25.392Z,103351.81
2019-02-14T14:02:54.711Z,103343.87
2019-02-14T14:05:24.084Z,103348.20
2019-02-14T14:07:53.396Z,103350.48
2019-02-14T14:10:22.733Z,103346.41
2019-02-14T14:12:52.082Z,103347.28
2019-02-14T14:15:21.426Z,103340.20
2019-02-14T14:17:50.705Z,103333.54
2019-02-14T14:20:20.205Z,103329.52
2019-02-14T14:22:49.492Z,103321.23
2019-02-14T14:25:18.783Z,103317.67
2019-02-14T14:27:48.165Z,103322.65
2019-02-14T14:30:17.503Z,103319.39
2019-02-14T14:32:46.873Z,103318.87
2019-02-14T14:35:16.251Z,103313.01
2019-02-14T14:37:45.505Z,103305.19
2019-02-14T14:40:14.935Z,103305.38
2019-02-14T14:43:05.966Z,103307.23
2019-02-14T14:46:00.832Z,103303.36
2019-02-14T14:48:37.741Z,103299.95
2019-02-14T14:51:07.078Z,103296.77
2019-02-14T14:53:36.334Z,103298.41
2019-02-14T14:56:05.696Z,103298.81
2019-02-14T14:58:34.977Z,103295.80
2019-02-14T15:01:04.521Z,103297.03
2019-02-14T15:03:33.927Z,103300.28
2019-02-14T15:06:03.242Z,103299.27
2019-02-14T15:08:32.519Z,103290.09
2019-02-14T15:11:01.935Z,103286.06
2019-02-14T15:13:31.266Z,103287.13
2019-02-14T15:16:00.558Z,103283.22
2019-02-14T15:18:29.933Z,103278.70
2019-02-14T15:20:59.228Z,103281.08
2019-02-14T15:23:28.524Z,103282.03
2019-02-14T15:25:57.814Z,103273.32
2019-02-14T15:28:27.147Z,103272.09
2019-02-14T15:30:56.506Z,103276.59
2019-02-14T15:33:34.761Z,103268.61
2019-02-14T15:36:04.171Z,103271.92
2019-02-14T15:38:34.554Z,103269.87
2019-02-14T15:41:04.582Z,103267.08
2019-02-14T15:43:34.087Z,103265.27
2019-02-14T15:46:03.592Z,103266.19
2019-02-14T15:48:32.919Z,103263.52
2019-02-14T15:51:02.196Z,103268.81
2019-02-14T15:53:31.559Z,103260.59
2019-02-14T15:56:01.016Z,103253.98
2019-02-14T15:58:31.103Z,103257.20
2019-02-14T16:01:01.533Z,103253.63
2019-02-14T16:03:30.876Z,103258.95
2019-02-14T16:06:01.724Z,103258.00
2019-02-14T16:08:31.253Z,103255.16
2019-02-14T16:11:00.588Z,103254.16
2019-02-14T16:13:31.727Z,103253.40
2019-02-14T16:16:00.964Z,103261.11
2019-02-14T16:18:30.298Z,103256.16
2019-02-14T16:20:59.585Z,103257.16
2019-02-14T16:23:30.160Z,103257.84
2019-02-14T16:25:59.920Z,103259.29
2019-02-14T16:28:29.250Z,103259.91
2019-02-14T16:30:58.606Z,103251.41
2019-02-14T16:33:27.932Z,103258.66
2019-02-14T16:35:57.299Z,103258.92
2019-02-14T16:38:26.586Z,103257.00
2019-02-14T16:40:55.900Z,103253.03
2019-02-14T16:43:25.231Z,103256.85
2019-02-14T16:45:54.576Z,103258.64
2019-02-14T16:48:23.920Z,103257.20
2019-02-14T16:50:53.331Z,103258.78
2019-02-14T16:53:22.662Z,103259.67
2019-02-14T16:55:52.063Z,103255.84
2019-02-14T16:58:24.991Z,103259.24
2019-02-14T17:01:35.025Z,103251.02
2019-02-14T17:07:23.489Z,103258.41
2019-02-14T17:09:52.849Z,103262.73
2019-02-14T17:15:54.099Z,103264.36
2019-02-14T17:18:23.534Z,103273.97
2019-02-14T17:20:52.913Z,103275.81
2019-02-14T17:23:22.251Z,103276.12
2019-02-14T17:25:51.685Z,103270.47
2019-02-14T17:28:21.067Z,103277.93
2019-02-14T17:30:50.417Z,103273.89
2019-02-14T17:33:19.791Z,103271.64
2019-02-14T17:35:49.177Z,103267.89
2019-02-14T17:38:18.587Z,103266.79
2019-02-14T17:40:47.929Z,103274.47
2019-02-14T17:43:17.341Z,103270.42
2019-02-14T17:45:46.688Z,103271.89
2019-02-14T17:48:16.153Z,103274.67
2019-02-14T17:50:45.468Z,103283.05
2019-02-14T17:53:14.787Z,103280.17
2019-02-14T17:55:44.160Z,103285.09
2019-02-14T17:58:13.545Z,103281.63
2019-02-14T18:00:42.955Z,103276.20
2019-02-14T18:03:12.312Z,103281.95
2019-02-14T18:05:41.700Z,103282.72
2019-02-14T18:08:11.158Z,103273.52
2019-02-14T18:10:40.531Z,103277.20
2019-02-14T18:13:09.870Z,103275.16
2019-02-14T18:15:39.186Z,103268.36
2019-02-14T18:18:08.662Z,103271.90
2019-02-14T18:20:38.072Z,103270.58
2019-02-14T18:23:07.401Z,103271.70
2019-02-14T18:25:36.845Z,103277.91
2019-02-14T18:28:06.290Z,103275.41
2019-02-14T18:30:35.658Z,103281.64
2019-02-14T18:33:05.151Z,103281.73
2019-02-14T18:35:34.543Z,103282.89
2019-02-14T18:38:03.972Z,103289.81
2019-02-14T18:40:33.451Z,103289.45
2019-02-14T18:43:02.965Z,103289.56
2019-02-14T18:45:32.270Z,103288.05
2019-02-14T18:48:01.564Z,103291.05
2019-02-14T18:50:31.049Z,103287.48
2019-02-14T18:53:00.444Z,103281.73
2019-02-14T18:55:29.802Z,103291.27
2019-02-14T18:57:59.106Z,103279.35
2019-02-14T19:00:28.648Z,103281.02
2019-02-14T19:02:58.031Z,103285.48
2019-02-14T19:05:27.384Z,103283.34
2019-02-14T19:07:56.752Z,103279.47
2019-02-14T19:10:26.175Z,103270.55
2019-02-14T19:12:55.569Z,103273.30
2019-02-14T19:15:24.947Z,103284.02
2019-02-14T19:17:54.268Z,103275.15
2019-02-14T19:20:23.633Z,103278.39
2019-02-14T19:22:52.933Z,103275.58
2019-02-14T19:25:22.371Z,103270.58
2019-02-14T19:27:51.660Z,103276.95
2019-02-14T19:30:21.043Z,103289.00
2019-02-14T19:32:50.430Z,103289.44
2019-02-14T19:35:23.076Z,103277.79
2019-02-14T19:37:50.871Z,103277.39
2019-02-14T19:40:20.202Z,103278.61
2019-02-14T19:42:49.525Z,103283.48
2019-02-14T19:45:18.883Z,103275.16
2019-02-14T19:47:48.352Z,103275.74
2019-02-14T19:50:17.766Z,103276.43
2019-02-14T19:52:48.676Z,103286.56
2019-02-14T19:55:18.032Z,103274.00
2019-02-14T19:57:47.623Z,103271.27
2019-02-14T20:00:17.141Z,103274.49
2019-02-14T20:02:46.589Z,103279.05
2019-02-14T20:05:15.981Z,103271.05
2019-02-14T20:07:45.442Z,103270.36
2019-02-14T20:10:15.615Z,103275.16
2019-02-14T20:12:45.126Z,103265.50
2019-02-14T20:15:15.479Z,103267.72
2019-02-14T20:17:44.927Z,103263.49
2019-02-14T20:20:14.349Z,103268.09
2019-02-14T20:22:43.694Z,103256.72
2019-02-14T20:25:14.306Z,103264.59
2019-02-14T20:27:43.656Z,103256.31
2019-02-14T20:30:13.089Z,103260.94
2019-02-14T20:32:42.434Z,103257.25
2019-02-14T20:35:11.918Z,103257.69
2019-02-14T20:37:41.290Z,103261.77
2019-02-14T20:40:10.688Z,103265.53
2019-02-14T20:42:40.062Z,103266.84
2019-02-14T20:45:10.225Z,103268.20
2019-02-14T20:47:39.551Z,103269.18
2019-02-14T20:50:10.558Z,103268.53
2019-02-14T20:52:39.932Z,103274.74
2019-02-14T20:55:11.439Z,103256.13
2019-02-14T20:57:40.815Z,103261.52
2019-02-14T21:00:20.414Z,103266.25
2019-02-14T21:02:49.732Z,103270.07
2019-02-14T21:05:19.096Z,103260.86
2019-02-14T21:07:48.463Z,103255.38
2019-02-14T21:10:17.871Z,103261.19
2019-02-14T21:12:47.259Z,103256.11
2019-02-14T21:15:16.657Z,103249.02
2019-02-14T21:17:45.995Z,103250.66
2019-02-14T21:20:15.414Z,103248.85
2019-02-14T21:22:44.899Z,103245.52
2019-02-14T21:25:15.113Z,103251.39
2019-02-14T21:27:44.433Z,103246.23
2019-02-14T21:30:14.660Z,103254.15
2019-02-14T21:32:44.131Z,103249.07
2019-02-14T21:35:13.556Z,103246.20
2019-02-14T21:37:43.000Z,103248.55
2019-02-14T21:40:13.074Z,103248.08
2019-02-14T21:42:42.425Z,103247.11
2019-02-14T21:45:12.837Z,103242.03
2019-02-14T21:47:42.189Z,103244.05
2019-02-14T21:50:11.854Z,103245.80
2019-02-14T21:52:41.221Z,103249.33
2019-02-14T21:55:10.925Z,103245.09
2019-02-14T21:58:40.978Z,103244.64
2019-02-14T22:01:11.939Z,103244.81
2019-02-14T22:03:41.290Z,103252.49
2019-02-14T22:06:10.614Z,103254.09
2019-02-14T22:08:40.061Z,103254.16
2019-02-14T22:11:09.437Z,103249.07
2019-02-14T22:13:38.750Z,103253.45
2019-02-14T22:16:08.115Z,103254.02
2019-02-14T22:18:37.466Z,103251.06
2019-02-14T22:21:06.806Z,103256.84
2019-02-14T22:23:36.691Z,103251.59
2019-02-14T22:26:06.126Z,103247.33
2019-02-14T22:28:35.500Z,103240.87
2019-02-14T22:31:04.804Z,103242.89
2019-02-14T22:33:34.173Z,103239.88
2019-02-14T22:36:03.495Z,103244.59
2019-02-14T22:38:32.812Z,103242.89
2019-02-14T22:41:02.244Z,103256.87
2019-02-14T22:43:31.538Z,103244.63
2019-02-14T22:46:00.865Z,103253.91
2019-02-14T22:48:30.163Z,103253.42
2019-02-14T22:50:59.495Z,103255.69
2019-02-14T22:53:28.832Z,103256.02
2019-02-14T22:55:58.067Z,103251.33
2019-02-14T22:58:27.422Z,103245.39
2019-02-14T23:00:59.929Z,103250.79
2019-02-14T23:03:29.228Z,103243.87
2019-02-14T23:05:58.563Z,103244.68
2019-02-14T23:08:27.881Z,103243.65
2019-02-14T23:10:57.258Z,103240.72
2019-02-14T23:13:26.590Z,103246.70
2019-02-14T23:15:55.952Z,103237.74
2019-02-14T23:18:26.031Z,103242.31
2019-02-14T23:20:55.365Z,103241.41
2019-02-14T23:23:24.704Z,103243.73
2019-02-14T23:25:53.986Z,103243.16
2019-02-14T23:28:23.259Z,103247.02
2019-02-14T23:30:52.606Z,103243.33
2019-02-14T23:33:21.916Z,103247.06
2019-02-14T23:35:51.192Z,103245.12
2019-02-14T23:38:20.495Z,103240.26
2019-02-14T23:40:49.833Z,103249.33
2019-02-14T23:43:19.140Z,103253.30
2019-02-14T23:45:48.509Z,103247.41
2019-02-14T23:48:17.831Z,103263.88
2019-02-14T23:50:47.198Z,103256.54
2019-02-14T23:53:16.477Z,103260.66
2019-02-14T23:55:45.809Z,103261.28
2019-02-14T23:58:15.084Z,103259.06
